Nearby METAR Reports

 

KSJC - San Jose, California, USA
Distance from station: NE 9mi, 14km
Updated: Fri, 29-May-2020 11:53am PDT
Mostly cloudy
Mostly cloudy
 Wind from varies
Wind: varies 3 mph , 6 km/h
Temperature: 77°F , 25°C
Dew Point: 54°F , 12°C
Humidity: 44%
Barometer: 29.86 inHg , 1011.2 hPa
Clouds: Mostly cloudy
Visibility: 10 miles , 16 km
Cloud details: Few Clouds 1200 ft
Partly cloudy 7000 ft
Mostly cloudy 10000 ft
2020/05/29 18:53 KSJC 291853Z VRB03KT 10SM FEW012 SCT070 BKN100 25/12 A2986 RMK AO2 SLP111 ACC N AND DSNT E T02500122
KNUQ - Moffett Nas/Mtn, California, USA
Distance from station: N 9mi, 14km
Updated: Fri, 29-May-2020 6:55am PDT
NOT Current
Overcast
Overcast
 Wind from SE
Wind: SE 6 mph , 9 km/h
Temperature: 59°F , 15°C
Dew Point: 54°F , 12°C
Humidity: 82%
Barometer: 29.90 inHg , 1012.5 hPa
Clouds: Overcast
Visibility: 10 miles , 16 km
Cloud details: Overcast 1300 ft
2020/05/29 13:55 KNUQ 291355Z AUTO 13005KT 10SM OVC013 15/12 A2990 RMK AO2
 
KPAO - Palo Alto, California, USA
Distance from station: NNW 14mi, 23km
Updated: Fri, 29-May-2020 11:47am PDT
Partly cloudy
Partly cloudy
 Wind from N
Wind: N 10 mph , 17 km/h
Temperature: 70°F , 21°C
Dew Point: 57°F , 14°C
Humidity: 64%
Barometer: 29.88 inHg , 1011.9 hPa
Clouds: Partly cloudy
Visibility: 10 miles , 16 km
Cloud details: Partly cloudy 10000 ft
2020/05/29 18:47 KPAO 291847Z 35009KT 10SM SCT1000 21/14 A2988
KRHV - San Jose/Reid, California, USA
Distance from station: ENE 12mi, 19km
Updated: Fri, 29-May-2020 11:47am PDT
Mostly cloudy
Mostly cloudy
 Wind from S
Wind: S 9 mph , 15 km/h
Temperature: 75°F , 24°C
Dew Point: 55°F , 13°C
Humidity: 50%
Barometer: 29.87 inHg , 1011.5 hPa
Clouds: Mostly cloudy
Visibility: 10 miles , 16 km
Cloud details: Partly cloudy 7000 ft
Mostly cloudy 15000 ft
2020/05/29 18:47 KRHV 291847Z 19008KT 10SM SCT070 BKN150 24/13 A2987
 
KOAK - Oakland, California, USA
Distance from station: NNW 31mi, 50km
Updated: Fri, 29-May-2020 11:53am PDT
Mostly cloudy
Mostly cloudy
 Wind from W
Wind: W 7 mph , 11 km/h
Temperature: 68°F , 20°C
Dew Point: 55°F , 13°C
Humidity: 64%
Barometer: 29.90 inHg , 1012.5 hPa
Clouds: Mostly cloudy
Visibility: 10 miles , 16 km
Cloud details: Partly cloudy 1300 ft
Mostly cloudy 20000 ft
2020/05/29 18:53 KOAK 291853Z 26006KT 10SM SCT013 BKN200 20/13 A2990 RMK AO2 SLP123 T02000128
KSQL - San Carlos Airpo, California, USA
Distance from station: NW 21mi, 34km
Updated: Fri, 29-May-2020 11:47am PDT
Mostly cloudy
Mostly cloudy
 Wind from W
Wind: W 7 mph , 11 km/h
Temperature: 68°F , 20°C
Dew Point: 55°F , 13°C
Humidity: 64%
Barometer: 29.89 inHg , 1012.2 hPa
Clouds: Mostly cloudy
Visibility: 10 miles , 16 km
Cloud details: Mostly cloudy 3000 ft
2020/05/29 18:47 KSQL 291847Z 27006KT 10SM BKN030 20/13 A2989
 
KSFO - San Francisco, California, USA
Distance from station: NW 30mi, 49km
Updated: Fri, 29-May-2020 11:56am PDT
Mostly cloudy
Mostly cloudy
 Wind from NE
Wind: NE 6 mph , 9 km/h
Temperature: 66°F , 19°C
Dew Point: 54°F , 12°C
Humidity: 64%
Barometer: 29.88 inHg , 1011.9 hPa
Clouds: Mostly cloudy
Visibility: 10 miles , 16 km
Cloud details: Few Clouds 900 ft
Partly cloudy 2500 ft
Mostly cloudy 20000 ft
2020/05/29 18:56 KSFO 291856Z 04005KT 10SM FEW009 SCT025 BKN200 19/12 A2988 RMK AO2 SLP119 T01890122
KE16 - San Martin, California, USA
Distance from station: ESE 27mi, 43km
Updated: Fri, 29-May-2020 12:25pm PDT
Clear
Clear
 Wind from S
Wind: S 16 mph , 26 km/h
Temperature: 68°F , 20°C
Dew Point: 54°F , 12°C
Humidity: 60%
Barometer: 29.92 inHg , 1013.2 hPa
Clouds: Clear
Visibility: 10 miles , 16 km
2020/05/29 19:25 KE16 291925Z AUTO 19014KT 10SM CLR 20/12 A2992 RMK AO2
 
KWVI - Watsonville, California, USA
Distance from station: SSE 27mi, 44km
Updated: Fri, 29-May-2020 12:14pm PDT
Overcast
Overcast
 Wind from W
Wind: W 9 mph , 15 km/h
Temperature: 61°F , 16°C
Dew Point: 55°F , 13°C
Humidity: 83%
Barometer: 29.95 inHg , 1014.2 hPa
Clouds: Overcast
Visibility: 10 miles , 16 km
Cloud details: Overcast 1000 ft
2020/05/29 19:14 KWVI 291914Z AUTO 28008KT 10SM OVC010 16/13 A2995 RMK AO2 T01610128
KHAF - Half Moon Bay, California, USA
Distance from station: WNW 31mi, 50km
Updated: Fri, 29-May-2020 12:35pm PDT
Few Clouds
Few Clouds
 Wind from S
Wind: S 17 mph , 28 km/h
Temperature: 61°F , 16°C
Dew Point: 55°F , 13°C
Humidity: 83%
Barometer: 29.93 inHg , 1013.5 hPa
Clouds: Few Clouds
Visibility: 10 miles , 16 km
Cloud details: Few Clouds 1200 ft
2020/05/29 19:35 KHAF 291935Z AUTO 19015KT 10SM FEW012 16/13 A2993 RMK AO2
 
KHWD - Hayward, California, USA
Distance from station: N 28mi, 44km
Updated: Fri, 29-May-2020 11:54am PDT
Partly cloudy
Partly cloudy
 Wind from WNW
Wind: WNW 7 mph , 11 km/h
Temperature: 68°F , 20°C
Dew Point: 55°F , 13°C
Humidity: 64%
Barometer: 29.88 inHg , 1011.9 hPa
Clouds: Partly cloudy
Visibility: 10 miles , 16 km
Cloud details: Partly cloudy 1400 ft
2020/05/29 18:54 KHWD 291854Z 30006KT 10SM SCT014 20/13 A2988 RMK AO2 SLP127 T02000133
KLVK - Livermore, California, USA
Distance from station: NNE 31mi, 51km
Updated: Fri, 29-May-2020 11:53am PDT
Clear
Clear
 Wind from NW
Wind: NW 13 mph , 20 km/h
Temperature: 73°F , 23°C
Dew Point: 55°F , 13°C
Humidity: 53%
Barometer: 29.85 inHg , 1010.8 hPa
Clouds: Clear
Visibility: 10 miles , 16 km
2020/05/29 18:53 KLVK 291853Z 31011KT 10SM CLR 23/13 A2985 RMK AO2 SLP104 T02330128